General Aviation Weather

Text Reports

Enter one or more of the following location identifiers separated by a space:

Zip Code, Four-Character ICAO or Three-Character IATA airport codes.

METAR - Aviation Routine Weather Report
TXKF - St. David's,
Updated at 2:55 PM GMT on August 29, 2016 (11:55 AM ADT):
METAR TXKF 291455Z 05006KT 010V090 9999 FEW018 FEW300 29/24 Q1019
TAF - Terminal Area Forecast
TXKF - St. David's,
Updated at 2:55 PM GMT on August 29, 2016 (11:55 AM ADT):
TAF TXKF 291131Z 2912/3012 VRB05KT 9999 FEW015 SCT300=
Decoded:
ID: TXKF   Bermuda Intl, BA
REPORT TIME: 29 11:31
VALID TIME: 29 August AT 12:00Z to 30 August AT 12:00Z.
INITIAL WX
   WIND: VARIABLE AT 5
   CLOUDS: 15 FEW
   CLOUDS: 300 SCT
   COMMENTS: = 

CORRECTION
INITIAL WX
   WEATHER: MMMX
   COMMENTS: 291135Z 2912/3018 12005KT 5SM HZ SCT020 OVC080 TX25/2921Z TN14/2912Z 
TEMPORARY WX FROM 12Z TO 16Z
   VISIBILITY: 4.0 MILES
   WEATHER: -RA
   CLOUDS: 15 BKN
NEW WX STARTING: 18:00Z
   WINDS: 140 AT 12
   VISIBILITY: >6.0 MILES
   CLOUDS: 20 SCT
   CLOUDS: 80 BKN
   CLOUDS: 250 BKN
TEMPORARY WX FROM 23Z TO 03Z
   VISIBILITY: 5.0 MILES
   WEATHER: -RA
   CLOUDS: 25 BKN WITH CB
NEW WX STARTING: 06:00Z
   WINDS: 20 AT 5
   VISIBILITY: >6.0 MILES
   CLOUDS: 80 SCT
   CLOUDS: 250 BKN
NEW WX STARTING: 18:00Z
   WINDS: 120 AT 12
   VISIBILITY: >6.0 MILES
   CLOUDS: 30 SCT
   CLOUDS: 80 BKN
   CLOUDS: 250 BKN
   COMMENTS: = 

PIREP - Pilot Weather Report
TXKF - St. David's,
Updated at 2:55 PM GMT on August 29, 2016 (11:55 AM ADT):
No PIREP is currently available for this location.
AIRMET - Airmens Meteorological Information
TXKF - St. David's,
Updated at 2:55 PM GMT on August 29, 2016 (11:55 AM ADT):
No AIRMET is currently available for this location.
SIGMET - Significant Meteorological Information
TXKF - St. David's,
Updated at 2:55 PM GMT on August 29, 2016 (11:55 AM ADT):
No SIGMET is currently available for this location.
NOTAM - Notice to Airmen
TXKF - St. David's,
Updated at 2:55 PM GMT on August 29, 2016 (11:55 AM ADT):
No NOTAM is currently available for this location.
Forecast Area
TXKF - St. David's,
Updated at 2:55 PM GMT on August 29, 2016 (11:55 AM ADT):
No NOTAM is currently available for this location.
Aviation Weather Maps